sensor_id;sensor_type;location;lat;lon;timestamp;P1;durP1;ratioP1;P2;durP2;ratioP2
12290;SDS011;6208;48.956;9.076;2023-05-10T00:02:32;1.30;;;0.70;;
12290;SDS011;6208;48.956;9.076;2023-05-10T00:05:16;0.70;;;0.60;;
12290;SDS011;6208;48.956;9.076;2023-05-10T00:08:00;0.50;;;0.50;;
12290;SDS011;6208;48.956;9.076;2023-05-10T00:10:44;2.05;;;0.63;;
12290;SDS011;6208;48.956;9.076;2023-05-10T00:13:28;0.50;;;0.50;;
12290;SDS011;6208;48.956;9.076;2023-05-10T00:16:12;0.70;;;0.70;;
12290;SDS011;6208;48.956;9.076;2023-05-10T00:18:56;0.50;;;0.50;;
12290;SDS011;6208;48.956;9.076;2023-05-10T00:21:40;0.57;;;0.57;;
12290;SDS011;6208;48.956;9.076;2023-05-10T00:24:24;1.50;;;0.60;;
12290;SDS011;6208;48.956;9.076;2023-05-10T00:27:08;0.40;;;0.40;;
12290;SDS011;6208;48.956;9.076;2023-05-10T00:29:52;2.80;;;0.50;;
12290;SDS011;6208;48.956;9.076;2023-05-10T00:32:37;0.65;;;0.65;;
12290;SDS011;6208;48.956;9.076;2023-05-10T00:35:21;0.60;;;0.60;;
12290;SDS011;6208;48.956;9.076;2023-05-10T00:38:06;1.70;;;0.60;;
12290;SDS011;6208;48.956;9.076;2023-05-10T00:40:50;0.63;;;0.63;;
12290;SDS011;6208;48.956;9.076;2023-05-10T00:43:34;0.60;;;0.60;;
12290;SDS011;6208;48.956;9.076;2023-05-10T00:46:19;0.60;;;0.60;;
12290;SDS011;6208;48.956;9.076;2023-05-10T00:49:03;0.75;;;0.75;;
12290;SDS011;6208;48.956;9.076;2023-05-10T00:51:48;1.67;;;0.70;;
12290;SDS011;6208;48.956;9.076;2023-05-10T00:54:32;1.20;;;0.70;;
12290;SDS011;6208;48.956;9.076;2023-05-10T00:57:17;0.70;;;0.70;;
12290;SDS011;6208;48.956;9.076;2023-05-10T01:00:02;0.80;;;0.80;;
12290;SDS011;6208;48.956;9.076;2023-05-10T01:02:47;2.40;;;0.80;;
12290;SDS011;6208;48.956;9.076;2023-05-10T01:05:33;1.55;;;1.02;;
12290;SDS011;6208;48.956;9.076;2023-05-10T01:08:17;1.05;;;1.05;;
12290;SDS011;6208;48.956;9.076;2023-05-10T01:11:01;1.08;;;0.98;;
12290;SDS011;6208;48.956;9.076;2023-05-10T01:13:47;1.23;;;1.23;;
12290;SDS011;6208;48.956;9.076;2023-05-10T01:16:39;1.17;;;1.17;;
12290;SDS011;6208;48.956;9.076;2023-05-10T01:19:25;0.93;;;0.93;;
12290;SDS011;6208;48.956;9.076;2023-05-10T01:31:22;1.27;;;1.27;;
12290;SDS011;6208;48.956;9.076;2023-05-10T01:34:25;1.25;;;1.25;;
12290;SDS011;6208;48.956;9.076;2023-05-10T01:37:18;1.17;;;1.15;;
12290;SDS011;6208;48.956;9.076;2023-05-10T01:43:05;1.80;;;1.73;;
12290;SDS011;6208;48.956;9.076;2023-05-10T01:45:58;1.20;;;1.20;;
12290;SDS011;6208;48.956;9.076;2023-05-10T01:48:48;1.40;;;1.40;;
12290;SDS011;6208;48.956;9.076;2023-05-10T01:51:38;1.23;;;1.23;;
12290;SDS011;6208;48.956;9.076;2023-05-10T01:54:35;1.40;;;1.40;;
12290;SDS011;6208;48.956;9.076;2023-05-10T01:57:25;1.48;;;1.48;;
12290;SDS011;6208;48.956;9.076;2023-05-10T02:00:15;1.35;;;1.35;;
12290;SDS011;6208;48.956;9.076;2023-05-10T02:03:00;1.90;;;1.80;;
12290;SDS011;6208;48.956;9.076;2023-05-10T02:05:48;1.67;;;1.63;;
12290;SDS011;6208;48.956;9.076;2023-05-10T02:08:34;1.45;;;1.40;;
12290;SDS011;6208;48.956;9.076;2023-05-10T02:11:20;1.30;;;1.30;;
12290;SDS011;6208;48.956;9.076;2023-05-10T02:14:07;1.33;;;1.33;;
12290;SDS011;6208;48.956;9.076;2023-05-10T02:16:54;1.30;;;1.20;;
12290;SDS011;6208;48.956;9.076;2023-05-10T02:19:40;1.15;;;1.15;;
12290;SDS011;6208;48.956;9.076;2023-05-10T02:22:27;1.65;;;1.30;;
12290;SDS011;6208;48.956;9.076;2023-05-10T02:25:11;1.42;;;1.25;;
12290;SDS011;6208;48.956;9.076;2023-05-10T02:27:57;1.27;;;1.27;;
12290;SDS011;6208;48.956;9.076;2023-05-10T02:30:43;1.60;;;1.50;;
12290;SDS011;6208;48.956;9.076;2023-05-10T02:33:28;1.60;;;1.60;;
12290;SDS011;6208;48.956;9.076;2023-05-10T02:36:14;1.55;;;1.50;;
12290;SDS011;6208;48.956;9.076;2023-05-10T02:38:59;1.70;;;1.60;;
12290;SDS011;6208;48.956;9.076;2023-05-10T02:41:45;2.00;;;1.85;;
12290;SDS011;6208;48.956;9.076;2023-05-10T02:44:31;1.92;;;1.83;;
12290;SDS011;6208;48.956;9.076;2023-05-10T02:47:17;1.98;;;1.80;;
12290;SDS011;6208;48.956;9.076;2023-05-10T02:50:02;1.98;;;1.92;;
12290;SDS011;6208;48.956;9.076;2023-05-10T02:52:47;1.80;;;1.80;;
12290;SDS011;6208;48.956;9.076;2023-05-10T02:55:38;1.73;;;1.63;;
12290;SDS011;6208;48.956;9.076;2023-05-10T02:58:24;3.60;;;1.92;;
12290;SDS011;6208;48.956;9.076;2023-05-10T03:01:08;2.30;;;2.10;;
12290;SDS011;6208;48.956;9.076;2023-05-10T03:03:53;5.22;;;2.22;;
12290;SDS011;6208;48.956;9.076;2023-05-10T03:06:37;2.75;;;2.08;;
12290;SDS011;6208;48.956;9.076;2023-05-10T03:09:22;2.10;;;2.00;;
12290;SDS011;6208;48.956;9.076;2023-05-10T03:12:18;2.25;;;2.15;;
12290;SDS011;6208;48.956;9.076;2023-05-10T03:15:31;3.08;;;2.40;;
12290;SDS011;6208;48.956;9.076;2023-05-10T03:18:30;3.33;;;2.80;;
12290;SDS011;6208;48.956;9.076;2023-05-10T03:21:24;4.85;;;2.53;;
12290;SDS011;6208;48.956;9.076;2023-05-10T03:24:12;3.17;;;2.88;;
12290;SDS011;6208;48.956;9.076;2023-05-10T03:26:58;3.20;;;3.00;;
12290;SDS011;6208;48.956;9.076;2023-05-10T03:29:46;3.35;;;3.15;;
12290;SDS011;6208;48.956;9.076;2023-05-10T03:32:31;3.00;;;2.90;;
12290;SDS011;6208;48.956;9.076;2023-05-10T03:35:18;2.80;;;2.60;;
12290;SDS011;6208;48.956;9.076;2023-05-10T03:38:02;2.95;;;2.85;;
12290;SDS011;6208;48.956;9.076;2023-05-10T03:40:46;3.13;;;2.78;;
12290;SDS011;6208;48.956;9.076;2023-05-10T03:43:31;2.90;;;2.80;;
12290;SDS011;6208;48.956;9.076;2023-05-10T03:46:15;3.97;;;3.65;;
12290;SDS011;6208;48.956;9.076;2023-05-10T03:48:59;4.05;;;3.35;;
12290;SDS011;6208;48.956;9.076;2023-05-10T03:51:43;3.95;;;3.67;;
12290;SDS011;6208;48.956;9.076;2023-05-10T03:54:27;3.63;;;3.42;;
12290;SDS011;6208;48.956;9.076;2023-05-10T03:57:11;3.70;;;3.50;;
12290;SDS011;6208;48.956;9.076;2023-05-10T03:59:55;4.07;;;3.78;;
12290;SDS011;6208;48.956;9.076;2023-05-10T04:02:39;3.72;;;3.42;;
12290;SDS011;6208;48.956;9.076;2023-05-10T04:05:24;4.28;;;3.47;;
12290;SDS011;6208;48.956;9.076;2023-05-10T04:08:08;3.60;;;3.42;;
12290;SDS011;6208;48.956;9.076;2023-05-10T04:10:52;3.00;;;2.90;;
12290;SDS011;6208;48.956;9.076;2023-05-10T04:13:36;3.70;;;3.50;;
12290;SDS011;6208;48.956;9.076;2023-05-10T04:16:21;3.35;;;2.88;;
12290;SDS011;6208;48.956;9.076;2023-05-10T04:19:05;3.30;;;2.80;;
12290;SDS011;6208;48.956;9.076;2023-05-10T04:21:49;2.70;;;2.60;;
12290;SDS011;6208;48.956;9.076;2023-05-10T04:24:33;2.65;;;2.55;;
12290;SDS011;6208;48.956;9.076;2023-05-10T04:27:18;2.72;;;2.50;;
12290;SDS011;6208;48.956;9.076;2023-05-10T04:30:02;2.60;;;2.47;;
12290;SDS011;6208;48.956;9.076;2023-05-10T04:32:46;2.30;;;2.20;;
12290;SDS011;6208;48.956;9.076;2023-05-10T04:35:31;2.97;;;2.88;;
12290;SDS011;6208;48.956;9.076;2023-05-10T04:38:15;2.85;;;2.65;;
12290;SDS011;6208;48.956;9.076;2023-05-10T04:41:06;2.50;;;2.40;;
12290;SDS011;6208;48.956;9.076;2023-05-10T04:43:51;3.03;;;2.83;;
12290;SDS011;6208;48.956;9.076;2023-05-10T04:46:35;2.55;;;2.45;;
12290;SDS011;6208;48.956;9.076;2023-05-10T04:49:20;2.53;;;2.33;;
12290;SDS011;6208;48.956;9.076;2023-05-10T04:52:05;2.63;;;2.53;;
12290;SDS011;6208;48.956;9.076;2023-05-10T04:54:50;2.78;;;2.67;;
12290;SDS011;6208;48.956;9.076;2023-05-10T04:57:35;2.53;;;2.33;;
12290;SDS011;6208;48.956;9.076;2023-05-10T05:00:19;2.70;;;2.60;;
12290;SDS011;6208;48.956;9.076;2023-05-10T05:03:04;2.97;;;2.78;;
12290;SDS011;6208;48.956;9.076;2023-05-10T05:05:48;2.63;;;2.42;;
12290;SDS011;6208;48.956;9.076;2023-05-10T05:08:33;3.15;;;2.70;;
12290;SDS011;6208;48.956;9.076;2023-05-10T05:11:17;2.85;;;2.75;;
12290;SDS011;6208;48.956;9.076;2023-05-10T05:14:01;3.33;;;3.10;;
12290;SDS011;6208;48.956;9.076;2023-05-10T05:16:45;2.63;;;2.53;;
12290;SDS011;6208;48.956;9.076;2023-05-10T05:19:30;2.90;;;2.80;;
12290;SDS011;6208;48.956;9.076;2023-05-10T05:22:14;3.50;;;3.30;;
12290;SDS011;6208;48.956;9.076;2023-05-10T05:24:59;3.47;;;3.28;;
12290;SDS011;6208;48.956;9.076;2023-05-10T05:27:44;3.30;;;3.10;;
12290;SDS011;6208;48.956;9.076;2023-05-10T05:30:28;3.00;;;2.80;;
12290;SDS011;6208;48.956;9.076;2023-05-10T05:33:15;3.65;;;3.17;;
12290;SDS011;6208;48.956;9.076;2023-05-10T05:38:50;3.03;;;2.83;;
12290;SDS011;6208;48.956;9.076;2023-05-10T05:41:34;3.10;;;2.90;;
12290;SDS011;6208;48.956;9.076;2023-05-10T05:44:18;3.85;;;3.35;;
12290;SDS011;6208;48.956;9.076;2023-05-10T05:47:02;3.33;;;3.13;;
12290;SDS011;6208;48.956;9.076;2023-05-10T05:49:47;3.78;;;3.28;;
12290;SDS011;6208;48.956;9.076;2023-05-10T05:52:31;3.25;;;3.05;;
12290;SDS011;6208;48.956;9.076;2023-05-10T05:55:15;3.10;;;3.00;;
12290;SDS011;6208;48.956;9.076;2023-05-10T05:57:59;3.60;;;3.40;;
12290;SDS011;6208;48.956;9.076;2023-05-10T06:00:43;4.03;;;3.47;;
12290;SDS011;6208;48.956;9.076;2023-05-10T06:03:27;3.65;;;3.40;;
12290;SDS011;6208;48.956;9.076;2023-05-10T06:06:11;3.53;;;3.33;;
12290;SDS011;6208;48.956;9.076;2023-05-10T06:08:55;3.50;;;3.30;;
12290;SDS011;6208;48.956;9.076;2023-05-10T06:11:39;3.80;;;3.50;;
12290;SDS011;6208;48.956;9.076;2023-05-10T06:14:24;3.05;;;2.95;;
12290;SDS011;6208;48.956;9.076;2023-05-10T06:17:08;3.53;;;3.20;;
12290;SDS011;6208;48.956;9.076;2023-05-10T06:19:52;4.00;;;3.60;;
12290;SDS011;6208;48.956;9.076;2023-05-10T06:22:37;4.00;;;3.60;;
12290;SDS011;6208;48.956;9.076;2023-05-10T06:25:21;3.72;;;3.50;;
12290;SDS011;6208;48.956;9.076;2023-05-10T06:28:04;4.05;;;3.53;;
12290;SDS011;6208;48.956;9.076;2023-05-10T06:30:49;3.20;;;3.03;;
12290;SDS011;6208;48.956;9.076;2023-05-10T06:33:34;3.50;;;3.20;;
12290;SDS011;6208;48.956;9.076;2023-05-10T06:36:18;3.40;;;3.10;;
12290;SDS011;6208;48.956;9.076;2023-05-10T06:39:02;2.90;;;2.70;;
12290;SDS011;6208;48.956;9.076;2023-05-10T06:41:47;2.72;;;2.63;;
12290;SDS011;6208;48.956;9.076;2023-05-10T06:44:31;2.85;;;2.65;;
12290;SDS011;6208;48.956;9.076;2023-05-10T06:47:15;2.90;;;2.70;;
12290;SDS011;6208;48.956;9.076;2023-05-10T06:49:59;2.72;;;2.53;;
12290;SDS011;6208;48.956;9.076;2023-05-10T06:52:44;3.10;;;2.70;;
12290;SDS011;6208;48.956;9.076;2023-05-10T06:55:28;3.58;;;2.60;;
12290;SDS011;6208;48.956;9.076;2023-05-10T06:58:12;5.72;;;2.17;;
12290;SDS011;6208;48.956;9.076;2023-05-10T07:01:01;2.30;;;2.00;;
12290;SDS011;6208;48.956;9.076;2023-05-10T07:03:46;2.47;;;2.08;;
12290;SDS011;6208;48.956;9.076;2023-05-10T07:06:30;2.05;;;1.90;;
12290;SDS011;6208;48.956;9.076;2023-05-10T07:09:14;1.40;;;1.40;;
12290;SDS011;6208;48.956;9.076;2023-05-10T07:11:58;3.20;;;1.75;;
12290;SDS011;6208;48.956;9.076;2023-05-10T07:14:42;1.80;;;1.70;;
12290;SDS011;6208;48.956;9.076;2023-05-10T07:17:26;1.70;;;1.60;;
12290;SDS011;6208;48.956;9.076;2023-05-10T07:20:10;1.60;;;1.50;;
12290;SDS011;6208;48.956;9.076;2023-05-10T07:22:55;2.50;;;2.10;;
12290;SDS011;6208;48.956;9.076;2023-05-10T07:25:39;1.30;;;1.30;;
12290;SDS011;6208;48.956;9.076;2023-05-10T07:28:23;1.50;;;1.40;;
12290;SDS011;6208;48.956;9.076;2023-05-10T07:31:10;1.90;;;1.80;;
12290;SDS011;6208;48.956;9.076;2023-05-10T07:33:54;3.65;;;1.75;;
12290;SDS011;6208;48.956;9.076;2023-05-10T07:36:38;2.80;;;1.33;;
12290;SDS011;6208;48.956;9.076;2023-05-10T07:39:22;1.58;;;1.48;;
12290;SDS011;6208;48.956;9.076;2023-05-10T07:42:06;1.48;;;1.10;;
12290;SDS011;6208;48.956;9.076;2023-05-10T07:44:51;1.35;;;1.25;;
12290;SDS011;6208;48.956;9.076;2023-05-10T07:47:35;2.75;;;1.27;;
12290;SDS011;6208;48.956;9.076;2023-05-10T07:50:19;0.77;;;0.77;;
12290;SDS011;6208;48.956;9.076;2023-05-10T07:53:04;0.88;;;0.70;;
12290;SDS011;6208;48.956;9.076;2023-05-10T07:55:53;1.13;;;0.80;;
12290;SDS011;6208;48.956;9.076;2023-05-10T07:58:40;0.80;;;0.80;;
12290;SDS011;6208;48.956;9.076;2023-05-10T08:01:24;0.80;;;0.80;;
12290;SDS011;6208;48.956;9.076;2023-05-10T08:04:10;0.90;;;0.90;;
12290;SDS011;6208;48.956;9.076;2023-05-10T08:06:55;0.60;;;0.60;;
12290;SDS011;6208;48.956;9.076;2023-05-10T08:09:39;0.70;;;0.70;;
12290;SDS011;6208;48.956;9.076;2023-05-10T08:12:23;0.75;;;0.75;;
12290;SDS011;6208;48.956;9.076;2023-05-10T08:15:07;0.60;;;0.60;;
12290;SDS011;6208;48.956;9.076;2023-05-10T08:17:52;2.00;;;0.80;;
12290;SDS011;6208;48.956;9.076;2023-05-10T08:20:36;1.00;;;0.88;;
12290;SDS011;6208;48.956;9.076;2023-05-10T08:23:20;0.60;;;0.60;;
12290;SDS011;6208;48.956;9.076;2023-05-10T08:26:04;0.90;;;0.90;;
12290;SDS011;6208;48.956;9.076;2023-05-10T08:28:49;0.65;;;0.65;;
12290;SDS011;6208;48.956;9.076;2023-05-10T08:31:33;2.90;;;0.60;;
12290;SDS011;6208;48.956;9.076;2023-05-10T08:34:17;1.85;;;0.70;;
12290;SDS011;6208;48.956;9.076;2023-05-10T08:37:01;3.10;;;0.88;;
12290;SDS011;6208;48.956;9.076;2023-05-10T08:39:45;1.08;;;0.70;;
12290;SDS011;6208;48.956;9.076;2023-05-10T08:42:31;0.95;;;0.63;;
12290;SDS011;6208;48.956;9.076;2023-05-10T08:45:19;0.60;;;0.60;;
12290;SDS011;6208;48.956;9.076;2023-05-10T08:48:07;0.52;;;0.52;;
12290;SDS011;6208;48.956;9.076;2023-05-10T08:50:53;0.73;;;0.68;;
12290;SDS011;6208;48.956;9.076;2023-05-10T08:53:41;0.50;;;0.50;;
12290;SDS011;6208;48.956;9.076;2023-05-10T08:56:25;1.20;;;0.52;;
12290;SDS011;6208;48.956;9.076;2023-05-10T08:59:09;0.77;;;0.60;;
12290;SDS011;6208;48.956;9.076;2023-05-10T09:01:55;1.02;;;0.57;;
12290;SDS011;6208;48.956;9.076;2023-05-10T09:04:42;2.47;;;0.70;;
12290;SDS011;6208;48.956;9.076;2023-05-10T09:07:26;1.25;;;0.75;;
12290;SDS011;6208;48.956;9.076;2023-05-10T09:10:11;2.22;;;0.60;;
12290;SDS011;6208;48.956;9.076;2023-05-10T09:12:56;0.80;;;0.80;;
12290;SDS011;6208;48.956;9.076;2023-05-10T09:15:43;0.70;;;0.70;;
12290;SDS011;6208;48.956;9.076;2023-05-10T09:18:27;0.73;;;0.73;;
12290;SDS011;6208;48.956;9.076;2023-05-10T09:21:11;0.90;;;0.90;;
12290;SDS011;6208;48.956;9.076;2023-05-10T09:23:57;1.25;;;0.60;;
12290;SDS011;6208;48.956;9.076;2023-05-10T09:26:47;0.63;;;0.63;;
12290;SDS011;6208;48.956;9.076;2023-05-10T09:29:38;0.70;;;0.70;;
12290;SDS011;6208;48.956;9.076;2023-05-10T09:32:37;1.25;;;0.75;;
12290;SDS011;6208;48.956;9.076;2023-05-10T09:35:29;1.63;;;0.70;;
12290;SDS011;6208;48.956;9.076;2023-05-10T09:38:15;2.83;;;0.80;;
12290;SDS011;6208;48.956;9.076;2023-05-10T09:40:59;0.65;;;0.65;;
12290;SDS011;6208;48.956;9.076;2023-05-10T09:43:45;0.70;;;0.70;;
12290;SDS011;6208;48.956;9.076;2023-05-10T09:46:30;1.13;;;0.75;;
12290;SDS011;6208;48.956;9.076;2023-05-10T09:49:20;1.35;;;0.73;;
12290;SDS011;6208;48.956;9.076;2023-05-10T09:52:06;0.85;;;0.70;;
12290;SDS011;6208;48.956;9.076;2023-05-10T09:54:54;0.95;;;0.60;;
12290;SDS011;6208;48.956;9.076;2023-05-10T09:57:39;0.63;;;0.60;;
12290;SDS011;6208;48.956;9.076;2023-05-10T10:00:24;1.98;;;0.50;;
12290;SDS011;6208;48.956;9.076;2023-05-10T10:03:12;0.55;;;0.55;;
12290;SDS011;6208;48.956;9.076;2023-05-10T10:06:00;1.08;;;0.50;;
12290;SDS011;6208;48.956;9.076;2023-05-10T10:08:44;1.05;;;0.47;;
12290;SDS011;6208;48.956;9.076;2023-05-10T10:11:28;0.52;;;0.52;;
12290;SDS011;6208;48.956;9.076;2023-05-10T10:14:12;2.70;;;0.93;;
12290;SDS011;6208;48.956;9.076;2023-05-10T10:16:57;0.60;;;0.60;;
12290;SDS011;6208;48.956;9.076;2023-05-10T10:19:44;1.65;;;0.50;;
12290;SDS011;6208;48.956;9.076;2023-05-10T10:22:29;0.90;;;0.70;;
12290;SDS011;6208;48.956;9.076;2023-05-10T10:25:17;0.73;;;0.70;;
12290;SDS011;6208;48.956;9.076;2023-05-10T10:31:30;2.38;;;0.88;;
12290;SDS011;6208;48.956;9.076;2023-05-10T10:34:26;0.60;;;0.60;;
12290;SDS011;6208;48.956;9.076;2023-05-10T10:37:12;1.35;;;1.35;;
12290;SDS011;6208;48.956;9.076;2023-05-10T10:39:56;1.33;;;0.80;;
12290;SDS011;6208;48.956;9.076;2023-05-10T10:42:43;0.70;;;0.70;;
12290;SDS011;6208;48.956;9.076;2023-05-10T10:45:33;1.13;;;0.60;;
12290;SDS011;6208;48.956;9.076;2023-05-10T10:48:21;0.60;;;0.60;;
12290;SDS011;6208;48.956;9.076;2023-05-10T10:51:06;1.38;;;0.80;;
12290;SDS011;6208;48.956;9.076;2023-05-10T10:53:51;1.88;;;0.70;;
12290;SDS011;6208;48.956;9.076;2023-05-10T10:56:35;1.40;;;0.80;;
12290;SDS011;6208;48.956;9.076;2023-05-10T10:59:26;1.42;;;0.77;;
12290;SDS011;6208;48.956;9.076;2023-05-10T11:02:32;0.98;;;0.68;;
12290;SDS011;6208;48.956;9.076;2023-05-10T11:05:35;5.95;;;1.05;;
12290;SDS011;6208;48.956;9.076;2023-05-10T11:08:29;0.70;;;0.70;;
12290;SDS011;6208;48.956;9.076;2023-05-10T11:11:18;3.53;;;0.88;;
12290;SDS011;6208;48.956;9.076;2023-05-10T11:14:04;1.23;;;0.93;;
12290;SDS011;6208;48.956;9.076;2023-05-10T11:16:50;1.10;;;0.75;;
12290;SDS011;6208;48.956;9.076;2023-05-10T11:19:35;1.30;;;0.90;;
12290;SDS011;6208;48.956;9.076;2023-05-10T11:22:22;2.88;;;1.10;;
12290;SDS011;6208;48.956;9.076;2023-05-10T11:25:11;0.82;;;0.82;;
12290;SDS011;6208;48.956;9.076;2023-05-10T11:27:56;0.98;;;0.98;;
12290;SDS011;6208;48.956;9.076;2023-05-10T11:30:41;1.10;;;0.98;;
12290;SDS011;6208;48.956;9.076;2023-05-10T11:33:27;0.80;;;0.80;;
12290;SDS011;6208;48.956;9.076;2023-05-10T11:36:15;1.15;;;1.00;;
12290;SDS011;6208;48.956;9.076;2023-05-10T11:39:00;0.90;;;0.90;;
12290;SDS011;6208;48.956;9.076;2023-05-10T11:41:47;1.50;;;1.40;;
12290;SDS011;6208;48.956;9.076;2023-05-10T11:44:32;1.40;;;1.13;;
12290;SDS011;6208;48.956;9.076;2023-05-10T11:47:17;1.20;;;1.10;;
12290;SDS011;6208;48.956;9.076;2023-05-10T11:50:01;1.83;;;1.30;;
12290;SDS011;6208;48.956;9.076;2023-05-10T11:52:50;1.05;;;1.05;;
12290;SDS011;6208;48.956;9.076;2023-05-10T11:55:35;1.95;;;1.35;;
12290;SDS011;6208;48.956;9.076;2023-05-10T11:58:19;2.33;;;1.15;;
12290;SDS011;6208;48.956;9.076;2023-05-10T12:01:05;3.67;;;1.55;;
12290;SDS011;6208;48.956;9.076;2023-05-10T12:03:51;1.70;;;1.60;;
12290;SDS011;6208;48.956;9.076;2023-05-10T12:06:37;1.40;;;1.30;;
12290;SDS011;6208;48.956;9.076;2023-05-10T12:09:24;2.60;;;1.10;;
12290;SDS011;6208;48.956;9.076;2023-05-10T12:12:08;2.40;;;1.58;;
12290;SDS011;6208;48.956;9.076;2023-05-10T12:14:52;1.73;;;1.48;;
12290;SDS011;6208;48.956;9.076;2023-05-10T12:17:37;2.05;;;1.25;;
12290;SDS011;6208;48.956;9.076;2023-05-10T12:20:24;2.97;;;0.90;;
12290;SDS011;6208;48.956;9.076;2023-05-10T12:23:11;2.75;;;1.00;;
12290;SDS011;6208;48.956;9.076;2023-05-10T12:26:03;1.00;;;1.00;;
12290;SDS011;6208;48.956;9.076;2023-05-10T12:28:48;0.85;;;0.77;;
12290;SDS011;6208;48.956;9.076;2023-05-10T12:31:32;0.80;;;0.80;;
12290;SDS011;6208;48.956;9.076;2023-05-10T12:34:30;1.33;;;0.73;;
12290;SDS011;6208;48.956;9.076;2023-05-10T12:37:16;1.52;;;0.70;;
12290;SDS011;6208;48.956;9.076;2023-05-10T12:40:00;1.13;;;1.00;;
12290;SDS011;6208;48.956;9.076;2023-05-10T12:42:46;1.33;;;0.77;;
12290;SDS011;6208;48.956;9.076;2023-05-10T12:45:32;2.42;;;0.93;;
12290;SDS011;6208;48.956;9.076;2023-05-10T12:48:16;0.70;;;0.70;;
12290;SDS011;6208;48.956;9.076;2023-05-10T12:51:00;2.03;;;0.70;;
12290;SDS011;6208;48.956;9.076;2023-05-10T12:53:45;1.63;;;1.10;;
12290;SDS011;6208;48.956;9.076;2023-05-10T12:56:31;2.90;;;0.88;;
12290;SDS011;6208;48.956;9.076;2023-05-10T12:59:15;3.25;;;0.90;;
12290;SDS011;6208;48.956;9.076;2023-05-10T13:01:59;2.45;;;0.95;;
12290;SDS011;6208;48.956;9.076;2023-05-10T13:04:46;3.17;;;1.10;;
12290;SDS011;6208;48.956;9.076;2023-05-10T13:07:31;2.80;;;1.38;;
12290;SDS011;6208;48.956;9.076;2023-05-10T13:10:15;0.85;;;0.85;;
12290;SDS011;6208;48.956;9.076;2023-05-10T13:13:00;1.10;;;0.60;;
12290;SDS011;6208;48.956;9.076;2023-05-10T13:15:44;0.93;;;0.85;;
12290;SDS011;6208;48.956;9.076;2023-05-10T13:18:27;0.65;;;0.65;;
12290;SDS011;6208;48.956;9.076;2023-05-10T13:21:12;1.27;;;0.95;;
12290;SDS011;6208;48.956;9.076;2023-05-10T13:23:56;1.50;;;1.27;;
12290;SDS011;6208;48.956;9.076;2023-05-10T13:26:40;1.75;;;0.80;;
12290;SDS011;6208;48.956;9.076;2023-05-10T13:29:24;1.02;;;1.00;;
12290;SDS011;6208;48.956;9.076;2023-05-10T13:32:09;0.77;;;0.77;;
12290;SDS011;6208;48.956;9.076;2023-05-10T13:34:53;3.13;;;0.88;;
12290;SDS011;6208;48.956;9.076;2023-05-10T13:37:38;1.00;;;0.95;;
12290;SDS011;6208;48.956;9.076;2023-05-10T13:40:22;1.65;;;0.90;;
12290;SDS011;6208;48.956;9.076;2023-05-10T13:43:06;1.02;;;0.68;;
12290;SDS011;6208;48.956;9.076;2023-05-10T13:45:51;1.20;;;0.80;;
12290;SDS011;6208;48.956;9.076;2023-05-10T13:48:35;1.02;;;1.02;;
12290;SDS011;6208;48.956;9.076;2023-05-10T13:51:22;1.02;;;0.82;;
12290;SDS011;6208;48.956;9.076;2023-05-10T13:54:07;1.10;;;0.90;;
12290;SDS011;6208;48.956;9.076;2023-05-10T13:56:51;1.23;;;0.98;;
12290;SDS011;6208;48.956;9.076;2023-05-10T13:59:35;1.10;;;0.95;;
12290;SDS011;6208;48.956;9.076;2023-05-10T14:02:19;1.33;;;0.98;;
12290;SDS011;6208;48.956;9.076;2023-05-10T14:05:03;1.23;;;0.93;;
12290;SDS011;6208;48.956;9.076;2023-05-10T14:07:47;2.83;;;0.88;;
12290;SDS011;6208;48.956;9.076;2023-05-10T14:10:32;0.75;;;0.75;;
12290;SDS011;6208;48.956;9.076;2023-05-10T14:13:16;0.77;;;0.75;;
12290;SDS011;6208;48.956;9.076;2023-05-10T14:16:00;0.80;;;0.80;;
12290;SDS011;6208;48.956;9.076;2023-05-10T14:18:44;0.82;;;0.73;;
12290;SDS011;6208;48.956;9.076;2023-05-10T14:21:29;1.58;;;0.50;;
12290;SDS011;6208;48.956;9.076;2023-05-10T14:24:14;0.73;;;0.70;;
12290;SDS011;6208;48.956;9.076;2023-05-10T14:26:58;0.80;;;0.80;;
12290;SDS011;6208;48.956;9.076;2023-05-10T14:29:43;0.80;;;0.70;;
12290;SDS011;6208;48.956;9.076;2023-05-10T14:32:27;1.00;;;0.90;;
12290;SDS011;6208;48.956;9.076;2023-05-10T14:35:11;1.00;;;0.80;;
12290;SDS011;6208;48.956;9.076;2023-05-10T14:37:56;1.85;;;0.73;;
12290;SDS011;6208;48.956;9.076;2023-05-10T14:40:41;1.85;;;0.85;;
12290;SDS011;6208;48.956;9.076;2023-05-10T14:43:26;0.82;;;0.82;;
12290;SDS011;6208;48.956;9.076;2023-05-10T14:46:11;2.50;;;0.82;;
12290;SDS011;6208;48.956;9.076;2023-05-10T14:48:55;1.48;;;1.00;;
12290;SDS011;6208;48.956;9.076;2023-05-10T14:51:39;3.70;;;0.88;;
12290;SDS011;6208;48.956;9.076;2023-05-10T14:54:24;1.60;;;0.88;;
12290;SDS011;6208;48.956;9.076;2023-05-10T14:57:08;0.63;;;0.47;;
12290;SDS011;6208;48.956;9.076;2023-05-10T14:59:51;0.60;;;0.60;;
12290;SDS011;6208;48.956;9.076;2023-05-10T15:02:35;3.10;;;0.80;;
12290;SDS011;6208;48.956;9.076;2023-05-10T15:05:20;3.53;;;0.85;;
12290;SDS011;6208;48.956;9.076;2023-05-10T15:08:04;0.60;;;0.60;;
12290;SDS011;6208;48.956;9.076;2023-05-10T15:10:49;2.55;;;0.93;;
12290;SDS011;6208;48.956;9.076;2023-05-10T15:13:33;2.90;;;0.98;;
12290;SDS011;6208;48.956;9.076;2023-05-10T15:16:17;0.63;;;0.63;;
12290;SDS011;6208;48.956;9.076;2023-05-10T15:19:01;0.77;;;0.77;;
12290;SDS011;6208;48.956;9.076;2023-05-10T15:21:45;1.00;;;0.82;;
12290;SDS011;6208;48.956;9.076;2023-05-10T15:24:31;1.00;;;0.70;;
12290;SDS011;6208;48.956;9.076;2023-05-10T15:27:15;0.70;;;0.70;;
12290;SDS011;6208;48.956;9.076;2023-05-10T15:29:59;0.60;;;0.60;;
12290;SDS011;6208;48.956;9.076;2023-05-10T15:32:47;0.85;;;0.75;;
12290;SDS011;6208;48.956;9.076;2023-05-10T15:35:31;1.05;;;0.70;;
12290;SDS011;6208;48.956;9.076;2023-05-10T15:38:17;1.00;;;1.00;;
12290;SDS011;6208;48.956;9.076;2023-05-10T15:41:01;1.63;;;1.40;;
12290;SDS011;6208;48.956;9.076;2023-05-10T15:43:45;0.75;;;0.75;;
12290;SDS011;6208;48.956;9.076;2023-05-10T15:46:29;0.60;;;0.60;;
12290;SDS011;6208;48.956;9.076;2023-05-10T15:49:14;0.95;;;0.88;;
12290;SDS011;6208;48.956;9.076;2023-05-10T15:51:58;1.77;;;1.38;;
12290;SDS011;6208;48.956;9.076;2023-05-10T15:54:42;0.60;;;0.60;;
12290;SDS011;6208;48.956;9.076;2023-05-10T15:57:26;3.25;;;3.00;;
12290;SDS011;6208;48.956;9.076;2023-05-10T16:00:11;0.88;;;0.88;;
12290;SDS011;6208;48.956;9.076;2023-05-10T16:02:56;1.85;;;0.77;;
12290;SDS011;6208;48.956;9.076;2023-05-10T16:05:40;0.93;;;0.85;;
12290;SDS011;6208;48.956;9.076;2023-05-10T16:08:23;1.15;;;0.73;;
12290;SDS011;6208;48.956;9.076;2023-05-10T16:11:08;0.93;;;0.93;;
12290;SDS011;6208;48.956;9.076;2023-05-10T16:13:52;2.05;;;1.20;;
12290;SDS011;6208;48.956;9.076;2023-05-10T16:16:37;2.15;;;1.35;;
12290;SDS011;6208;48.956;9.076;2023-05-10T16:19:21;1.48;;;0.98;;
12290;SDS011;6208;48.956;9.076;2023-05-10T16:22:05;1.10;;;0.85;;
12290;SDS011;6208;48.956;9.076;2023-05-10T16:24:50;1.80;;;1.70;;
12290;SDS011;6208;48.956;9.076;2023-05-10T16:27:35;1.63;;;0.85;;
12290;SDS011;6208;48.956;9.076;2023-05-10T16:30:21;0.93;;;0.77;;
12290;SDS011;6208;48.956;9.076;2023-05-10T16:33:06;0.82;;;0.82;;
12290;SDS011;6208;48.956;9.076;2023-05-10T16:35:50;0.93;;;0.70;;
12290;SDS011;6208;48.956;9.076;2023-05-10T16:38:34;0.60;;;0.60;;
12290;SDS011;6208;48.956;9.076;2023-05-10T16:41:19;1.15;;;0.80;;
12290;SDS011;6208;48.956;9.076;2023-05-10T16:44:04;0.57;;;0.57;;
12290;SDS011;6208;48.956;9.076;2023-05-10T16:46:48;1.00;;;1.00;;
12290;SDS011;6208;48.956;9.076;2023-05-10T16:49:32;1.10;;;1.10;;
12290;SDS011;6208;48.956;9.076;2023-05-10T16:52:16;0.70;;;0.70;;
12290;SDS011;6208;48.956;9.076;2023-05-10T16:55:00;2.15;;;1.02;;
12290;SDS011;6208;48.956;9.076;2023-05-10T16:57:45;1.67;;;0.75;;
12290;SDS011;6208;48.956;9.076;2023-05-10T17:00:30;0.57;;;0.57;;
12290;SDS011;6208;48.956;9.076;2023-05-10T17:03:17;1.38;;;0.60;;
12290;SDS011;6208;48.956;9.076;2023-05-10T17:06:01;0.60;;;0.60;;
12290;SDS011;6208;48.956;9.076;2023-05-10T17:08:45;1.42;;;0.65;;
12290;SDS011;6208;48.956;9.076;2023-05-10T17:11:29;1.83;;;0.73;;